sensor_id;sensor_type;location;lat;lon;timestamp;pressure;altitude;pressure_sealevel;temperature;humidity
60974;BME280;46846;51.528;5.076;2023-01-26T00:01:23;102013.22;;;-0.35;78.88
60974;BME280;46846;51.528;5.076;2023-01-26T00:03:50;102006.34;;;-0.30;78.62
60974;BME280;46846;51.528;5.076;2023-01-26T00:06:17;102008.94;;;-0.32;79.19
60974;BME280;46846;51.528;5.076;2023-01-26T00:08:46;102003.66;;;-0.33;78.55
60974;BME280;46846;51.528;5.076;2023-01-26T00:11:14;102002.03;;;-0.30;78.92
60974;BME280;46846;51.528;5.076;2023-01-26T00:13:40;102001.91;;;-0.34;78.97
60974;BME280;46846;51.528;5.076;2023-01-26T00:16:11;101998.38;;;-0.35;78.66
60974;BME280;46846;51.528;5.076;2023-01-26T00:18:37;101994.06;;;-0.34;79.09
60974;BME280;46846;51.528;5.076;2023-01-26T00:21:04;101992.41;;;-0.31;78.38
60974;BME280;46846;51.528;5.076;2023-01-26T00:23:31;101983.78;;;-0.26;79.05
60974;BME280;46846;51.528;5.076;2023-01-26T00:25:57;101987.13;;;-0.32;78.52
60974;BME280;46846;51.528;5.076;2023-01-26T00:28:23;101978.50;;;-0.30;78.54
60974;BME280;46846;51.528;5.076;2023-01-26T00:30:48;101976.66;;;-0.32;78.84
60974;BME280;46846;51.528;5.076;2023-01-26T00:33:14;101970.50;;;-0.34;78.77
60974;BME280;46846;51.528;5.076;2023-01-26T00:35:40;101966.03;;;-0.38;78.60
60974;BME280;46846;51.528;5.076;2023-01-26T00:38:09;101975.75;;;-0.34;79.16
60974;BME280;46846;51.528;5.076;2023-01-26T00:40:35;101976.59;;;-0.35;78.83
60974;BME280;46846;51.528;5.076;2023-01-26T00:43:01;101971.25;;;-0.38;78.97
60974;BME280;46846;51.528;5.076;2023-01-26T00:45:26;101970.47;;;-0.36;78.92
60974;BME280;46846;51.528;5.076;2023-01-26T00:47:52;101958.22;;;-0.37;78.76
60974;BME280;46846;51.528;5.076;2023-01-26T00:50:20;101953.78;;;-0.39;78.64
60974;BME280;46846;51.528;5.076;2023-01-26T00:52:45;101964.25;;;-0.39;79.28
60974;BME280;46846;51.528;5.076;2023-01-26T00:55:10;101969.47;;;-0.39;79.24
60974;BME280;46846;51.528;5.076;2023-01-26T00:57:36;101961.63;;;-0.39;79.39
60974;BME280;46846;51.528;5.076;2023-01-26T01:00:02;101957.38;;;-0.36;79.27
60974;BME280;46846;51.528;5.076;2023-01-26T01:02:28;101952.94;;;-0.40;79.05
60974;BME280;46846;51.528;5.076;2023-01-26T01:04:53;101951.97;;;-0.42;78.60
60974;BME280;46846;51.528;5.076;2023-01-26T01:07:18;101950.44;;;-0.35;79.45
60974;BME280;46846;51.528;5.076;2023-01-26T01:09:44;101952.22;;;-0.34;78.92
60974;BME280;46846;51.528;5.076;2023-01-26T01:12:10;101953.19;;;-0.31;79.15
60974;BME280;46846;51.528;5.076;2023-01-26T01:14:35;101953.22;;;-0.29;78.84
60974;BME280;46846;51.528;5.076;2023-01-26T01:17:01;101942.78;;;-0.28;78.60
60974;BME280;46846;51.528;5.076;2023-01-26T01:19:27;101946.19;;;-0.32;78.30
60974;BME280;46846;51.528;5.076;2023-01-26T01:21:52;101953.13;;;-0.32;78.93
60974;BME280;46846;51.528;5.076;2023-01-26T01:24:18;101951.44;;;-0.30;78.58
60974;BME280;46846;51.528;5.076;2023-01-26T01:26:43;101949.66;;;-0.31;78.70
60974;BME280;46846;51.528;5.076;2023-01-26T01:29:11;101952.25;;;-0.33;79.06
60974;BME280;46846;51.528;5.076;2023-01-26T01:31:37;101953.06;;;-0.34;79.08
60974;BME280;46846;51.528;5.076;2023-01-26T01:34:02;101948.81;;;-0.30;78.99
60974;BME280;46846;51.528;5.076;2023-01-26T01:36:28;101954.94;;;-0.30;78.77
60974;BME280;46846;51.528;5.076;2023-01-26T01:38:55;101964.56;;;-0.29;78.38
60974;BME280;46846;51.528;5.076;2023-01-26T01:41:21;101965.41;;;-0.30;78.77
60974;BME280;46846;51.528;5.076;2023-01-26T01:43:47;101957.63;;;-0.26;78.54
60974;BME280;46846;51.528;5.076;2023-01-26T01:46:29;101961.16;;;-0.26;78.84
60974;BME280;46846;51.528;5.076;2023-01-26T01:49:21;101955.84;;;-0.29;78.79
60974;BME280;46846;51.528;5.076;2023-01-26T01:54:51;101949.78;;;-0.28;78.11
60974;BME280;46846;51.528;5.076;2023-01-26T01:57:28;101954.03;;;-0.32;78.51
60974;BME280;46846;51.528;5.076;2023-01-26T02:00:06;101942.66;;;-0.32;78.66
60974;BME280;46846;51.528;5.076;2023-01-26T02:02:31;101933.06;;;-0.33;78.68
60974;BME280;46846;51.528;5.076;2023-01-26T02:05:02;101941.91;;;-0.28;78.84
60974;BME280;46846;51.528;5.076;2023-01-26T02:07:31;101935.78;;;-0.29;79.09
60974;BME280;46846;51.528;5.076;2023-01-26T02:09:58;101940.09;;;-0.31;78.67
60974;BME280;46846;51.528;5.076;2023-01-26T02:12:42;101933.97;;;-0.31;79.17
60974;BME280;46846;51.528;5.076;2023-01-26T02:15:08;101930.50;;;-0.32;78.96
60974;BME280;46846;51.528;5.076;2023-01-26T02:17:34;101932.19;;;-0.32;78.78
60974;BME280;46846;51.528;5.076;2023-01-26T02:20:52;101921.69;;;-0.34;79.03
60974;BME280;46846;51.528;5.076;2023-01-26T02:23:05;101923.50;;;-0.33;79.07
60974;BME280;46846;51.528;5.076;2023-01-26T02:25:37;101923.44;;;-0.34;79.23
60974;BME280;46846;51.528;5.076;2023-01-26T02:28:04;101920.78;;;-0.36;79.07
60974;BME280;46846;51.528;5.076;2023-01-26T02:30:30;101926.97;;;-0.32;78.96
60974;BME280;46846;51.528;5.076;2023-01-26T02:32:55;101926.06;;;-0.34;79.42
60974;BME280;46846;51.528;5.076;2023-01-26T02:35:21;101920.78;;;-0.36;79.32
60974;BME280;46846;51.528;5.076;2023-01-26T02:37:46;101923.50;;;-0.33;79.23
60974;BME280;46846;51.528;5.076;2023-01-26T02:42:37;101917.28;;;-0.36;79.14
60974;BME280;46846;51.528;5.076;2023-01-26T02:45:03;101919.84;;;-0.38;79.47
60974;BME280;46846;51.528;5.076;2023-01-26T02:47:29;101919.78;;;-0.39;79.62
60974;BME280;46846;51.528;5.076;2023-01-26T02:49:54;101913.50;;;-0.46;79.05
60974;BME280;46846;51.528;5.076;2023-01-26T02:52:24;101916.25;;;-0.42;79.69
60974;BME280;46846;51.528;5.076;2023-01-26T02:54:53;101912.63;;;-0.47;79.69
60974;BME280;46846;51.528;5.076;2023-01-26T02:57:38;101906.69;;;-0.41;79.42
60974;BME280;46846;51.528;5.076;2023-01-26T03:00:09;101922.28;;;-0.44;80.04
60974;BME280;46846;51.528;5.076;2023-01-26T03:02:35;101918.63;;;-0.49;79.38
60974;BME280;46846;51.528;5.076;2023-01-26T03:05:01;101913.25;;;-0.56;80.24
60974;BME280;46846;51.528;5.076;2023-01-26T03:07:26;101913.34;;;-0.52;79.63
60974;BME280;46846;51.528;5.076;2023-01-26T03:09:52;101914.38;;;-0.46;80.02
60974;BME280;46846;51.528;5.076;2023-01-26T03:12:18;101916.97;;;-0.47;80.11
60974;BME280;46846;51.528;5.076;2023-01-26T03:14:43;101907.50;;;-0.44;79.21
60974;BME280;46846;51.528;5.076;2023-01-26T03:17:08;101911.88;;;-0.43;79.99
60974;BME280;46846;51.528;5.076;2023-01-26T03:19:34;101904.88;;;-0.44;79.83
60974;BME280;46846;51.528;5.076;2023-01-26T03:22:18;101904.03;;;-0.43;79.66
60974;BME280;46846;51.528;5.076;2023-01-26T03:25:02;101905.84;;;-0.40;79.32
60974;BME280;46846;51.528;5.076;2023-01-26T03:27:47;101902.28;;;-0.42;79.49
60974;BME280;46846;51.528;5.076;2023-01-26T03:30:15;101896.19;;;-0.43;79.24
60974;BME280;46846;51.528;5.076;2023-01-26T03:32:41;101903.91;;;-0.47;80.14
60974;BME280;46846;51.528;5.076;2023-01-26T03:35:07;101899.66;;;-0.44;79.31
60974;BME280;46846;51.528;5.076;2023-01-26T03:37:39;101902.22;;;-0.45;79.50
60974;BME280;46846;51.528;5.076;2023-01-26T03:40:10;101903.13;;;-0.45;79.91
60974;BME280;46846;51.528;5.076;2023-01-26T03:42:54;101904.69;;;-0.50;79.87
60974;BME280;46846;51.528;5.076;2023-01-26T03:45:38;101897.88;;;-0.45;79.72
60974;BME280;46846;51.528;5.076;2023-01-26T03:48:22;101897.03;;;-0.44;79.82
60974;BME280;46846;51.528;5.076;2023-01-26T03:51:06;101898.75;;;-0.44;79.98
60974;BME280;46846;51.528;5.076;2023-01-26T03:53:50;101898.03;;;-0.38;79.50
60974;BME280;46846;51.528;5.076;2023-01-26T03:56:34;101897.78;;;-0.48;80.12
60974;BME280;46846;51.528;5.076;2023-01-26T03:59:02;101895.94;;;-0.52;79.72
60974;BME280;46846;51.528;5.076;2023-01-26T04:01:38;101895.81;;;-0.55;80.50
60974;BME280;46846;51.528;5.076;2023-01-26T04:04:05;101899.47;;;-0.50;80.08
60974;BME280;46846;51.528;5.076;2023-01-26T04:06:50;101895.09;;;-0.49;79.69
60974;BME280;46846;51.528;5.076;2023-01-26T04:09:35;101896.97;;;-0.45;80.02
60974;BME280;46846;51.528;5.076;2023-01-26T04:12:06;101896.94;;;-0.47;79.74
60974;BME280;46846;51.528;5.076;2023-01-26T04:14:34;101892.53;;;-0.48;79.50
60974;BME280;46846;51.528;5.076;2023-01-26T04:17:18;101895.28;;;-0.43;79.73
60974;BME280;46846;51.528;5.076;2023-01-26T04:20:03;101892.78;;;-0.38;79.75
60974;BME280;46846;51.528;5.076;2023-01-26T04:22:46;101900.63;;;-0.40;79.63
60974;BME280;46846;51.528;5.076;2023-01-26T04:25:17;101896.31;;;-0.38;79.43
60974;BME280;46846;51.528;5.076;2023-01-26T04:27:43;101897.16;;;-0.39;79.68
60974;BME280;46846;51.528;5.076;2023-01-26T04:30:11;101892.78;;;-0.40;79.39
60974;BME280;46846;51.528;5.076;2023-01-26T04:32:38;101899.84;;;-0.36;79.93
60974;BME280;46846;51.528;5.076;2023-01-26T04:35:05;101898.03;;;-0.38;79.96
60974;BME280;46846;51.528;5.076;2023-01-26T04:37:31;101898.03;;;-0.38;79.62
60974;BME280;46846;51.528;5.076;2023-01-26T04:39:57;101902.38;;;-0.39;79.82
60974;BME280;46846;51.528;5.076;2023-01-26T04:42:22;101897.03;;;-0.44;79.92
60974;BME280;46846;51.528;5.076;2023-01-26T04:44:51;101898.00;;;-0.40;79.84
60974;BME280;46846;51.528;5.076;2023-01-26T04:47:17;101891.81;;;-0.42;79.50
60974;BME280;46846;51.528;5.076;2023-01-26T04:49:43;101894.50;;;-0.40;79.84
60974;BME280;46846;51.528;5.076;2023-01-26T04:52:08;101894.59;;;-0.37;79.31
60974;BME280;46846;51.528;5.076;2023-01-26T04:54:33;101891.13;;;-0.36;79.26
60974;BME280;46846;51.528;5.076;2023-01-26T04:56:59;101892.91;;;-0.35;79.48
60974;BME280;46846;51.528;5.076;2023-01-26T04:59:24;101894.66;;;-0.34;79.55
60974;BME280;46846;51.528;5.076;2023-01-26T05:01:49;101892.97;;;-0.32;79.62
60974;BME280;46846;51.528;5.076;2023-01-26T05:04:15;101895.63;;;-0.31;79.53
60974;BME280;46846;51.528;5.076;2023-01-26T05:06:40;101891.28;;;-0.30;79.53
60974;BME280;46846;51.528;5.076;2023-01-26T05:09:08;101888.66;;;-0.30;79.57
60974;BME280;46846;51.528;5.076;2023-01-26T05:11:34;101885.13;;;-0.32;79.47
60974;BME280;46846;51.528;5.076;2023-01-26T05:13:59;101878.13;;;-0.33;79.93
60974;BME280;46846;51.528;5.076;2023-01-26T05:16:25;101886.94;;;-0.30;79.43
60974;BME280;46846;51.528;5.076;2023-01-26T05:18:50;101885.06;;;-0.35;79.40
60974;BME280;46846;51.528;5.076;2023-01-26T05:21:16;101889.38;;;-0.37;79.60
60974;BME280;46846;51.528;5.076;2023-01-26T05:23:41;101878.91;;;-0.36;79.60
60974;BME280;46846;51.528;5.076;2023-01-26T05:26:07;101885.91;;;-0.35;79.84
60974;BME280;46846;51.528;5.076;2023-01-26T05:28:33;101885.97;;;-0.33;79.48
60974;BME280;46846;51.528;5.076;2023-01-26T05:30:59;101886.81;;;-0.34;79.87
60974;BME280;46846;51.528;5.076;2023-01-26T05:33:24;101892.97;;;-0.32;79.53
60974;BME280;46846;51.528;5.076;2023-01-26T05:35:50;101883.41;;;-0.32;79.44
60974;BME280;46846;51.528;5.076;2023-01-26T05:38:16;101891.28;;;-0.30;79.63
60974;BME280;46846;51.528;5.076;2023-01-26T05:40:42;101891.28;;;-0.30;79.25
60974;BME280;46846;51.528;5.076;2023-01-26T05:43:08;101893.94;;;-0.29;79.20
60974;BME280;46846;51.528;5.076;2023-01-26T05:45:34;101890.47;;;-0.29;79.69
60974;BME280;46846;51.528;5.076;2023-01-26T05:48:00;101900.06;;;-0.28;79.63
60974;BME280;46846;51.528;5.076;2023-01-26T05:50:25;101896.59;;;-0.27;79.17
60974;BME280;46846;51.528;5.076;2023-01-26T05:52:51;101895.53;;;-0.34;79.31
60974;BME280;46846;51.528;5.076;2023-01-26T05:55:16;101902.56;;;-0.33;79.76
60974;BME280;46846;51.528;5.076;2023-01-26T05:57:42;101904.41;;;-0.29;79.12
60974;BME280;46846;51.528;5.076;2023-01-26T06:00:09;101900.16;;;-0.25;79.64
60974;BME280;46846;51.528;5.076;2023-01-26T06:02:35;101902.63;;;-0.30;79.21
60974;BME280;46846;51.528;5.076;2023-01-26T06:05:00;101903.56;;;-0.28;79.22
60974;BME280;46846;51.528;5.076;2023-01-26T06:07:25;101908.78;;;-0.28;79.51
60974;BME280;46846;51.528;5.076;2023-01-26T06:09:51;101913.09;;;-0.30;79.38
60974;BME280;46846;51.528;5.076;2023-01-26T06:12:19;101914.00;;;-0.29;79.51
60974;BME280;46846;51.528;5.076;2023-01-26T06:14:45;101914.00;;;-0.29;79.07
60974;BME280;46846;51.528;5.076;2023-01-26T06:17:12;101917.53;;;-0.27;79.71
60974;BME280;46846;51.528;5.076;2023-01-26T06:19:38;101922.66;;;-0.30;79.62
60974;BME280;46846;51.528;5.076;2023-01-26T06:22:07;101923.63;;;-0.28;79.13
60974;BME280;46846;51.528;5.076;2023-01-26T06:24:32;101921.00;;;-0.28;79.35
60974;BME280;46846;51.528;5.076;2023-01-26T06:26:58;101920.94;;;-0.30;79.29
60974;BME280;46846;51.528;5.076;2023-01-26T06:29:24;101921.84;;;-0.29;79.76
60974;BME280;46846;51.528;5.076;2023-01-26T06:31:49;101921.88;;;-0.28;79.59
60974;BME280;46846;51.528;5.076;2023-01-26T06:34:14;101916.75;;;-0.24;79.52
60974;BME280;46846;51.528;5.076;2023-01-26T06:36:40;101931.63;;;-0.22;79.57
60974;BME280;46846;51.528;5.076;2023-01-26T06:39:05;101922.94;;;-0.21;79.15
60974;BME280;46846;51.528;5.076;2023-01-26T06:41:31;101922.03;;;-0.21;79.30
60974;BME280;46846;51.528;5.076;2023-01-26T06:43:57;101923.75;;;-0.23;79.15
60974;BME280;46846;51.528;5.076;2023-01-26T06:46:22;101923.75;;;-0.23;79.75
60974;BME280;46846;51.528;5.076;2023-01-26T06:48:50;101929.03;;;-0.22;79.13
60974;BME280;46846;51.528;5.076;2023-01-26T06:53:54;101931.72;;;-0.19;79.15
60974;BME280;46846;51.528;5.076;2023-01-26T06:56:20;101935.22;;;-0.18;79.07
60974;BME280;46846;51.528;5.076;2023-01-26T06:58:45;101930.78;;;-0.21;79.34
60974;BME280;46846;51.528;5.076;2023-01-26T07:01:16;101927.28;;;-0.21;79.50
60974;BME280;46846;51.528;5.076;2023-01-26T07:03:42;101929.94;;;-0.20;79.04
60974;BME280;46846;51.528;5.076;2023-01-26T07:06:07;101931.72;;;-0.19;79.85
60974;BME280;46846;51.528;5.076;2023-01-26T07:08:36;101932.56;;;-0.20;79.86
60974;BME280;46846;51.528;5.076;2023-01-26T07:11:01;101926.41;;;-0.22;79.42
60974;BME280;46846;51.528;5.076;2023-01-26T07:13:27;101933.44;;;-0.19;79.67
60974;BME280;46846;51.528;5.076;2023-01-26T07:16:00;101942.25;;;-0.16;79.43
60974;BME280;46846;51.528;5.076;2023-01-26T07:18:25;101942.34;;;-0.12;78.91
60974;BME280;46846;51.528;5.076;2023-01-26T07:20:50;101945.75;;;-0.15;79.00
60974;BME280;46846;51.528;5.076;2023-01-26T07:23:16;101954.59;;;-0.11;79.50
60974;BME280;46846;51.528;5.076;2023-01-26T07:25:42;101945.84;;;-0.12;79.04
60974;BME280;46846;51.528;5.076;2023-01-26T07:28:08;101940.66;;;-0.10;79.17
60974;BME280;46846;51.528;5.076;2023-01-26T07:30:37;101936.34;;;-0.08;79.05
60974;BME280;46846;51.528;5.076;2023-01-26T07:33:03;101938.09;;;-0.09;79.03
60974;BME280;46846;51.528;5.076;2023-01-26T07:35:28;101947.72;;;-0.08;79.04
60974;BME280;46846;51.528;5.076;2023-01-26T07:37:54;101939.81;;;-0.09;78.70
60974;BME280;46846;51.528;5.076;2023-01-26T07:40:22;101946.78;;;-0.10;79.25
60974;BME280;46846;51.528;5.076;2023-01-26T07:42:47;101949.41;;;-0.08;79.27
60974;BME280;46846;51.528;5.076;2023-01-26T07:45:13;101946.91;;;-0.05;79.02
60974;BME280;46846;51.528;5.076;2023-01-26T07:47:38;101946.84;;;-0.07;78.66
60974;BME280;46846;51.528;5.076;2023-01-26T07:50:04;101956.47;;;-0.07;78.68
60974;BME280;46846;51.528;5.076;2023-01-26T07:52:31;101964.38;;;-0.04;78.75
60974;BME280;46846;51.528;5.076;2023-01-26T07:54:56;101961.75;;;-0.04;78.63
60974;BME280;46846;51.528;5.076;2023-01-26T07:57:22;101969.66;;;-0.03;78.62
60974;BME280;46846;51.528;5.076;2023-01-26T07:59:47;101959.16;;;-0.04;78.86
60974;BME280;46846;51.528;5.076;2023-01-26T08:02:13;101964.50;;;0.01;79.17
60974;BME280;46846;51.528;5.076;2023-01-26T08:04:38;101974.13;;;0.02;78.68
60974;BME280;46846;51.528;5.076;2023-01-26T08:07:03;101973.19;;;-0.01;78.87
60974;BME280;46846;51.528;5.076;2023-01-26T08:09:29;101966.19;;;-0.02;78.91
60974;BME280;46846;51.528;5.076;2023-01-26T08:11:57;101969.66;;;-0.03;78.66
60974;BME280;46846;51.528;5.076;2023-01-26T08:14:23;101968.03;;;0.01;78.58
60974;BME280;46846;51.528;5.076;2023-01-26T08:16:49;101977.53;;;-0.01;78.91
60974;BME280;46846;51.528;5.076;2023-01-26T08:19:14;101981.13;;;0.03;78.95
60974;BME280;46846;51.528;5.076;2023-01-26T08:21:39;101986.22;;;-0.02;78.77
60974;BME280;46846;51.528;5.076;2023-01-26T08:24:05;101984.56;;;0.00;78.64
60974;BME280;46846;51.528;5.076;2023-01-26T08:26:31;101974.97;;;0.01;78.49
60974;BME280;46846;51.528;5.076;2023-01-26T08:28:56;101976.75;;;0.02;78.75
60974;BME280;46846;51.528;5.076;2023-01-26T08:31:22;101980.25;;;0.02;78.87
60974;BME280;46846;51.528;5.076;2023-01-26T08:33:50;101980.28;;;0.04;78.62
60974;BME280;46846;51.528;5.076;2023-01-26T08:36:17;101981.09;;;0.01;78.84
60974;BME280;46846;51.528;5.076;2023-01-26T08:38:43;101980.25;;;0.02;78.69
60974;BME280;46846;51.528;5.076;2023-01-26T08:41:09;101984.63;;;0.03;78.34
60974;BME280;46846;51.528;5.076;2023-01-26T08:43:35;101984.72;;;0.06;78.99
60974;BME280;46846;51.528;5.076;2023-01-26T08:46:00;101982.09;;;0.06;78.83
60974;BME280;46846;51.528;5.076;2023-01-26T08:48:26;101976.00;;;0.07;78.29
60974;BME280;46846;51.528;5.076;2023-01-26T08:50:53;101987.38;;;0.08;78.54
60974;BME280;46846;51.528;5.076;2023-01-26T08:53:19;101990.91;;;0.08;78.35
60974;BME280;46846;51.528;5.076;2023-01-26T08:55:44;101987.44;;;0.09;78.92
60974;BME280;46846;51.528;5.076;2023-01-26T08:58:10;101991.75;;;0.09;78.39
60974;BME280;46846;51.528;5.076;2023-01-26T09:00:35;101990.00;;;0.08;78.41
60974;BME280;46846;51.528;5.076;2023-01-26T09:03:03;101990.97;;;0.11;78.78
60974;BME280;46846;51.528;5.076;2023-01-26T09:05:34;101987.44;;;0.11;78.62
60974;BME280;46846;51.528;5.076;2023-01-26T09:08:00;101988.34;;;0.11;78.25
60974;BME280;46846;51.528;5.076;2023-01-26T09:10:26;101992.72;;;0.12;78.68
60974;BME280;46846;51.528;5.076;2023-01-26T09:12:51;101990.97;;;0.11;78.33
60974;BME280;46846;51.528;5.076;2023-01-26T09:15:17;101994.47;;;0.12;78.53
60974;BME280;46846;51.528;5.076;2023-01-26T09:17:42;101991.88;;;0.12;78.04
60974;BME280;46846;51.528;5.076;2023-01-26T09:20:09;102003.22;;;0.12;78.55
60974;BME280;46846;51.528;5.076;2023-01-26T09:22:35;101998.81;;;0.11;78.44
60974;BME280;46846;51.528;5.076;2023-01-26T09:25:00;102003.16;;;0.11;78.84
60974;BME280;46846;51.528;5.076;2023-01-26T09:27:28;101999.66;;;0.10;78.32
60974;BME280;46846;51.528;5.076;2023-01-26T09:29:54;102000.59;;;0.12;78.56
60974;BME280;46846;51.528;5.076;2023-01-26T09:32:20;101998.06;;;0.16;78.32
60974;BME280;46846;51.528;5.076;2023-01-26T09:34:46;101999.84;;;0.17;78.17
60974;BME280;46846;51.528;5.076;2023-01-26T09:37:11;102006.84;;;0.18;78.71
60974;BME280;46846;51.528;5.076;2023-01-26T09:39:37;102006.72;;;0.13;78.19
60974;BME280;46846;51.528;5.076;2023-01-26T09:42:38;102002.34;;;0.13;78.20
60974;BME280;46846;51.528;5.076;2023-01-26T09:53:06;102002.59;;;0.21;78.75
60974;BME280;46846;51.528;5.076;2023-01-26T09:55:39;102008.75;;;0.23;78.56
60974;BME280;46846;51.528;5.076;2023-01-26T09:58:12;102010.56;;;0.26;78.32
60974;BME280;46846;51.528;5.076;2023-01-26T10:00:45;102008.84;;;0.26;78.44
60974;BME280;46846;51.528;5.076;2023-01-26T10:08:43;102006.06;;;0.22;79.07
60974;BME280;46846;51.528;5.076;2023-01-26T10:11:15;102000.09;;;0.26;78.85
60974;BME280;46846;51.528;5.076;2023-01-26T10:13:48;101998.31;;;0.25;79.25
60974;BME280;46846;51.528;5.076;2023-01-26T10:16:15;102003.59;;;0.26;79.40
60974;BME280;46846;51.528;5.076;2023-01-26T10:19:04;101999.13;;;0.22;79.13
60974;BME280;46846;51.528;5.076;2023-01-26T10:21:34;102009.72;;;0.27;79.42
60974;BME280;46846;51.528;5.076;2023-01-26T10:24:01;102011.56;;;0.31;79.97
60974;BME280;46846;51.528;5.076;2023-01-26T10:26:30;102007.25;;;0.33;79.81
60974;BME280;46846;51.528;5.076;2023-01-26T10:28:56;102004.66;;;0.33;80.44
60974;BME280;46846;51.528;5.076;2023-01-26T10:31:33;102007.94;;;0.26;79.80
60974;BME280;46846;51.528;5.076;2023-01-26T10:33:59;102013.13;;;0.24;80.17
60974;BME280;46846;51.528;5.076;2023-01-26T10:36:28;102021.47;;;0.09;79.70
60974;BME280;46846;51.528;5.076;2023-01-26T10:39:02;102019.16;;;0.22;80.36
60974;BME280;46846;51.528;5.076;2023-01-26T10:41:28;102015.56;;;0.18;80.82
60974;BME280;46846;51.528;5.076;2023-01-26T10:46:37;102007.59;;;0.13;80.54
60974;BME280;46846;51.528;5.076;2023-01-26T10:51:46;102006.44;;;0.04;80.58
60974;BME280;46846;51.528;5.076;2023-01-26T10:54:28;102006.63;;;0.10;80.95
60974;BME280;46846;51.528;5.076;2023-01-26T10:56:58;102013.69;;;0.12;81.34
60974;BME280;46846;51.528;5.076;2023-01-26T10:59:31;102008.44;;;0.12;82.11
60974;BME280;46846;51.528;5.076;2023-01-26T11:04:25;102007.16;;;0.29;83.27
60974;BME280;46846;51.528;5.076;2023-01-26T11:06:51;102006.25;;;0.28;83.35
60974;BME280;46846;51.528;5.076;2023-01-26T11:09:28;102012.56;;;0.35;84.50
60974;BME280;46846;51.528;5.076;2023-01-26T11:14:22;102011.94;;;0.45;85.41
60974;BME280;46846;51.528;5.076;2023-01-26T11:17:04;102015.41;;;0.44;85.61
60974;BME280;46846;51.528;5.076;2023-01-26T11:22:36;102020.44;;;0.36;84.76
60974;BME280;46846;51.528;5.076;2023-01-26T11:33:28;102018.09;;;0.47;87.04
60974;BME280;46846;51.528;5.076;2023-01-26T11:36:17;102012.06;;;0.50;87.01
60974;BME280;46846;51.528;5.076;2023-01-26T11:39:05;102011.31;;;0.56;87.59
60974;BME280;46846;51.528;5.076;2023-01-26T11:44:52;102007.44;;;0.41;83.43
60974;BME280;46846;51.528;5.076;2023-01-26T11:52:50;101996.78;;;0.33;83.13
60974;BME280;46846;51.528;5.076;2023-01-26T11:55:30;101993.50;;;0.40;85.15
60974;BME280;46846;51.528;5.076;2023-01-26T12:00:47;101996.97;;;0.39;83.01
60974;BME280;46846;51.528;5.076;2023-01-26T12:03:22;101986.94;;;0.58;88.01
60974;BME280;46846;51.528;5.076;2023-01-26T12:06:00;101988.97;;;0.68;89.19
60974;BME280;46846;51.528;5.076;2023-01-26T12:08:41;101987.31;;;0.72;89.81
60974;BME280;46846;51.528;5.076;2023-01-26T12:11:14;101976.97;;;0.78;90.17
60974;BME280;46846;51.528;5.076;2023-01-26T12:13:54;101979.56;;;0.78;89.63
60974;BME280;46846;51.528;5.076;2023-01-26T12:16:40;101979.19;;;0.61;87.58
60974;BME280;46846;51.528;5.076;2023-01-26T12:19:40;101976.00;;;0.75;89.75
60974;BME280;46846;51.528;5.076;2023-01-26T12:22:14;101970.84;;;0.78;89.35
60974;BME280;46846;51.528;5.076;2023-01-26T12:24:51;101966.56;;;0.81;89.88
60974;BME280;46846;51.528;5.076;2023-01-26T12:27:46;101964.88;;;0.84;90.10
60974;BME280;46846;51.528;5.076;2023-01-26T12:30:29;101963.06;;;0.81;89.59
60974;BME280;46846;51.528;5.076;2023-01-26T12:32:58;101962.34;;;0.88;90.58
60974;BME280;46846;51.528;5.076;2023-01-26T12:44:01;101946.03;;;1.00;90.90
60974;BME280;46846;51.528;5.076;2023-01-26T12:46:38;101944.41;;;1.05;91.18
60974;BME280;46846;51.528;5.076;2023-01-26T12:49:27;101940.13;;;1.09;91.22
60974;BME280;46846;51.528;5.076;2023-01-26T12:52:06;101934.53;;;0.93;88.90
60974;BME280;46846;51.528;5.076;2023-01-26T12:54:47;101932.75;;;0.92;88.03
60974;BME280;46846;51.528;5.076;2023-01-26T12:57:19;101930.91;;;0.88;87.89
60974;BME280;46846;51.528;5.076;2023-01-26T12:59:45;101929.50;;;1.03;89.71
60974;BME280;46846;51.528;5.076;2023-01-26T13:04:39;101935.69;;;1.06;89.55
60974;BME280;46846;51.528;5.076;2023-01-26T13:07:28;101942.94;;;1.18;91.21
60974;BME280;46846;51.528;5.076;2023-01-26T13:15:27;101928.25;;;1.27;90.80
60974;BME280;46846;51.528;5.076;2023-01-26T13:17:54;101929.72;;;1.14;88.40
60974;BME280;46846;51.528;5.076;2023-01-26T13:23:42;101922.25;;;1.31;90.91
60974;BME280;46846;51.528;5.076;2023-01-26T13:26:23;101923.88;;;1.24;89.47
60974;BME280;46846;51.528;5.076;2023-01-26T13:28:50;101927.31;;;1.23;88.60
60974;BME280;46846;51.528;5.076;2023-01-26T13:31:31;101924.72;;;1.25;89.09
60974;BME280;46846;51.528;5.076;2023-01-26T13:34:00;101920.91;;;1.10;86.62
60974;BME280;46846;51.528;5.076;2023-01-26T13:36:29;101926.56;;;1.29;89.39
60974;BME280;46846;51.528;5.076;2023-01-26T13:39:03;101935.16;;;1.21;86.87
60974;BME280;46846;51.528;5.076;2023-01-26T13:41:30;101924.59;;;1.18;87.31
60974;BME280;46846;51.528;5.076;2023-01-26T13:44:09;101930.50;;;1.08;84.96
60974;BME280;46846;51.528;5.076;2023-01-26T13:46:44;101930.06;;;1.29;89.30
60974;BME280;46846;51.528;5.076;2023-01-26T13:49:36;101936.16;;;1.28;87.58
60974;BME280;46846;51.528;5.076;2023-01-26T13:52:03;101934.97;;;1.54;90.81
60974;BME280;46846;51.528;5.076;2023-01-26T13:54:40;101935.59;;;1.42;88.51
60974;BME280;46846;51.528;5.076;2023-01-26T13:57:09;101934.69;;;1.40;87.63
60974;BME280;46846;51.528;5.076;2023-01-26T13:59:50;101930.00;;;1.26;87.13
60974;BME280;46846;51.528;5.076;2023-01-26T14:04:53;101933.09;;;1.49;88.34
60974;BME280;46846;51.528;5.076;2023-01-26T14:07:23;101923.78;;;1.62;90.34
60974;BME280;46846;51.528;5.076;2023-01-26T14:09:50;101931.66;;;1.62;89.79
60974;BME280;46846;51.528;5.076;2023-01-26T14:12:26;101936.25;;;1.31;85.59
60974;BME280;46846;51.528;5.076;2023-01-26T14:14:55;101935.13;;;1.63;89.89
60974;BME280;46846;51.528;5.076;2023-01-26T14:17:26;101943.00;;;1.61;89.04
60974;BME280;46846;51.528;5.076;2023-01-26T14:19:52;101942.50;;;1.38;84.53
60974;BME280;46846;51.528;5.076;2023-01-26T14:22:17;101946.41;;;1.57;88.99